sensor_id;sensor_type;location;lat;lon;timestamp;temperature;humidity
11489;DHT22;5801;50.804;12.638;2023-08-31T00:00:43;13.60;1.00
11489;DHT22;5801;50.804;12.638;2023-08-31T00:03:10;13.40;1.00
11489;DHT22;5801;50.804;12.638;2023-08-31T00:05:41;13.50;1.00
11489;DHT22;5801;50.804;12.638;2023-08-31T00:08:07;13.40;1.00
11489;DHT22;5801;50.804;12.638;2023-08-31T00:10:36;13.50;1.00
11489;DHT22;5801;50.804;12.638;2023-08-31T00:13:02;13.30;1.00
11489;DHT22;5801;50.804;12.638;2023-08-31T00:17:58;13.30;1.00
11489;DHT22;5801;50.804;12.638;2023-08-31T00:20:24;13.30;1.00
11489;DHT22;5801;50.804;12.638;2023-08-31T00:25:16;13.10;99.90
11489;DHT22;5801;50.804;12.638;2023-08-31T00:27:42;13.00;99.90
11489;DHT22;5801;50.804;12.638;2023-08-31T00:32:36;13.10;99.90
11489;DHT22;5801;50.804;12.638;2023-08-31T00:35:02;13.10;99.90
11489;DHT22;5801;50.804;12.638;2023-08-31T00:39:55;12.80;1.00
11489;DHT22;5801;50.804;12.638;2023-08-31T00:42:21;12.80;1.00
11489;DHT22;5801;50.804;12.638;2023-08-31T00:44:47;12.60;60.50
11489;DHT22;5801;50.804;12.638;2023-08-31T00:47:14;12.80;1.00
11489;DHT22;5801;50.804;12.638;2023-08-31T00:52:07;12.60;1.00
11489;DHT22;5801;50.804;12.638;2023-08-31T00:54:34;12.50;1.00
11489;DHT22;5801;50.804;12.638;2023-08-31T01:02:19;12.50;1.00
11489;DHT22;5801;50.804;12.638;2023-08-31T01:05:08;12.60;15.40
11489;DHT22;5801;50.804;12.638;2023-08-31T01:08:03;12.50;1.00
11489;DHT22;5801;50.804;12.638;2023-08-31T01:10:41;12.70;1.00
11489;DHT22;5801;50.804;12.638;2023-08-31T01:13:16;12.30;1.00
11489;DHT22;5801;50.804;12.638;2023-08-31T01:15:46;12.20;1.00
11489;DHT22;5801;50.804;12.638;2023-08-31T01:18:18;12.40;1.00
11489;DHT22;5801;50.804;12.638;2023-08-31T01:21:04;12.50;1.00
11489;DHT22;5801;50.804;12.638;2023-08-31T01:23:53;12.30;99.90
11489;DHT22;5801;50.804;12.638;2023-08-31T01:26:19;12.10;99.90
11489;DHT22;5801;50.804;12.638;2023-08-31T01:28:47;12.60;99.90
11489;DHT22;5801;50.804;12.638;2023-08-31T01:31:13;12.30;99.90
11489;DHT22;5801;50.804;12.638;2023-08-31T01:36:18;12.70;99.90
11489;DHT22;5801;50.804;12.638;2023-08-31T01:39:06;12.70;99.90
11489;DHT22;5801;50.804;12.638;2023-08-31T01:41:35;12.80;1.00
11489;DHT22;5801;50.804;12.638;2023-08-31T01:44:02;12.70;1.00
11489;DHT22;5801;50.804;12.638;2023-08-31T01:51:20;12.40;1.00
11489;DHT22;5801;50.804;12.638;2023-08-31T01:53:46;12.20;1.00
11489;DHT22;5801;50.804;12.638;2023-08-31T01:56:12;12.60;44.00
11489;DHT22;5801;50.804;12.638;2023-08-31T01:58:39;12.40;99.90
11489;DHT22;5801;50.804;12.638;2023-08-31T02:03:30;12.20;1.00
11489;DHT22;5801;50.804;12.638;2023-08-31T02:10:49;12.30;1.00
11489;DHT22;5801;50.804;12.638;2023-08-31T02:13:15;12.30;1.00
11489;DHT22;5801;50.804;12.638;2023-08-31T02:18:08;12.30;1.00
11489;DHT22;5801;50.804;12.638;2023-08-31T02:20:34;12.20;99.90
11489;DHT22;5801;50.804;12.638;2023-08-31T02:23:00;12.00;1.00
11489;DHT22;5801;50.804;12.638;2023-08-31T02:30:21;12.30;1.00
11489;DHT22;5801;50.804;12.638;2023-08-31T02:32:47;11.90;99.90
11489;DHT22;5801;50.804;12.638;2023-08-31T02:35:12;11.90;99.90
11489;DHT22;5801;50.804;12.638;2023-08-31T02:37:38;12.00;99.90
11489;DHT22;5801;50.804;12.638;2023-08-31T02:40:05;12.00;99.90
11489;DHT22;5801;50.804;12.638;2023-08-31T02:47:24;12.20;1.00
11489;DHT22;5801;50.804;12.638;2023-08-31T02:52:15;12.10;99.90
11489;DHT22;5801;50.804;12.638;2023-08-31T02:54:41;12.00;99.90
11489;DHT22;5801;50.804;12.638;2023-08-31T02:59:33;12.00;1.00
11489;DHT22;5801;50.804;12.638;2023-08-31T03:02:02;12.00;99.90
11489;DHT22;5801;50.804;12.638;2023-08-31T03:06:55;12.10;1.00
11489;DHT22;5801;50.804;12.638;2023-08-31T03:09:20;12.00;1.00
11489;DHT22;5801;50.804;12.638;2023-08-31T03:11:46;12.00;99.90
11489;DHT22;5801;50.804;12.638;2023-08-31T03:14:12;12.10;99.90
11489;DHT22;5801;50.804;12.638;2023-08-31T03:19:05;13.70;99.90
11489;DHT22;5801;50.804;12.638;2023-08-31T03:21:31;12.10;50.50
11489;DHT22;5801;50.804;12.638;2023-08-31T03:26:23;12.20;1.00
11489;DHT22;5801;50.804;12.638;2023-08-31T03:31:15;12.10;1.00
11489;DHT22;5801;50.804;12.638;2023-08-31T03:38:33;12.20;1.00
11489;DHT22;5801;50.804;12.638;2023-08-31T03:41:03;12.10;1.00
11489;DHT22;5801;50.804;12.638;2023-08-31T03:43:29;12.10;99.90
11489;DHT22;5801;50.804;12.638;2023-08-31T03:45:56;12.10;99.90
11489;DHT22;5801;50.804;12.638;2023-08-31T03:48:22;12.10;99.90
11489;DHT22;5801;50.804;12.638;2023-08-31T03:50:50;12.10;1.00
11489;DHT22;5801;50.804;12.638;2023-08-31T03:55:42;12.20;1.00
11489;DHT22;5801;50.804;12.638;2023-08-31T03:58:08;12.20;1.00
11489;DHT22;5801;50.804;12.638;2023-08-31T04:24:57;12.10;99.90
11489;DHT22;5801;50.804;12.638;2023-08-31T04:51:44;12.20;99.90
11489;DHT22;5801;50.804;12.638;2023-08-31T04:54:10;12.20;99.90
11489;DHT22;5801;50.804;12.638;2023-08-31T04:56:36;12.30;99.90
11489;DHT22;5801;50.804;12.638;2023-08-31T04:59:02;12.20;99.90
11489;DHT22;5801;50.804;12.638;2023-08-31T05:03:54;12.30;99.90
11489;DHT22;5801;50.804;12.638;2023-08-31T05:06:20;12.30;99.90
11489;DHT22;5801;50.804;12.638;2023-08-31T05:08:48;12.20;99.90
11489;DHT22;5801;50.804;12.638;2023-08-31T05:13:40;12.50;99.90
11489;DHT22;5801;50.804;12.638;2023-08-31T05:16:10;12.40;99.90
11489;DHT22;5801;50.804;12.638;2023-08-31T05:18:37;12.50;99.90
11489;DHT22;5801;50.804;12.638;2023-08-31T05:23:29;12.50;97.80
11489;DHT22;5801;50.804;12.638;2023-08-31T05:25:56;12.60;8.30
11489;DHT22;5801;50.804;12.638;2023-08-31T05:30:54;12.80;1.00
11489;DHT22;5801;50.804;12.638;2023-08-31T05:43:14;13.50;99.90
11489;DHT22;5801;50.804;12.638;2023-08-31T05:45:41;13.60;99.90
11489;DHT22;5801;50.804;12.638;2023-08-31T05:48:08;13.70;99.90
11489;DHT22;5801;50.804;12.638;2023-08-31T05:50:34;14.00;99.90
11489;DHT22;5801;50.804;12.638;2023-08-31T05:55:28;13.90;99.90
11489;DHT22;5801;50.804;12.638;2023-08-31T05:57:54;13.80;99.90
11489;DHT22;5801;50.804;12.638;2023-08-31T06:10:05;14.30;99.90
11489;DHT22;5801;50.804;12.638;2023-08-31T06:14:58;14.50;99.90
11489;DHT22;5801;50.804;12.638;2023-08-31T06:24:42;15.00;99.90
11489;DHT22;5801;50.804;12.638;2023-08-31T06:27:08;15.00;99.90
11489;DHT22;5801;50.804;12.638;2023-08-31T06:49:06;17.10;76.00
11489;DHT22;5801;50.804;12.638;2023-08-31T06:51:32;17.30;72.20
11489;DHT22;5801;50.804;12.638;2023-08-31T06:58:58;17.60;59.60
11489;DHT22;5801;50.804;12.638;2023-08-31T07:01:24;17.60;57.10
11489;DHT22;5801;50.804;12.638;2023-08-31T07:03:49;17.70;51.00
11489;DHT22;5801;50.804;12.638;2023-08-31T07:13:36;19.10;32.70
11489;DHT22;5801;50.804;12.638;2023-08-31T07:16:02;19.30;28.50
11489;DHT22;5801;50.804;12.638;2023-08-31T07:18:28;19.50;23.10
11489;DHT22;5801;50.804;12.638;2023-08-31T07:20:54;19.70;21.70
11489;DHT22;5801;50.804;12.638;2023-08-31T07:23:20;19.50;20.60
11489;DHT22;5801;50.804;12.638;2023-08-31T07:25:46;19.30;21.20
11489;DHT22;5801;50.804;12.638;2023-08-31T07:28:12;19.50;19.70
11489;DHT22;5801;50.804;12.638;2023-08-31T07:30:38;19.90;15.90
11489;DHT22;5801;50.804;12.638;2023-08-31T07:33:04;20.40;13.00
11489;DHT22;5801;50.804;12.638;2023-08-31T07:35:30;20.70;10.60
11489;DHT22;5801;50.804;12.638;2023-08-31T07:37:56;20.80;4.40
11489;DHT22;5801;50.804;12.638;2023-08-31T07:40:21;20.70;5.50
11489;DHT22;5801;50.804;12.638;2023-08-31T07:42:47;20.80;5.00
11489;DHT22;5801;50.804;12.638;2023-08-31T07:45:13;20.70;3.50
11489;DHT22;5801;50.804;12.638;2023-08-31T07:47:38;20.10;7.60
11489;DHT22;5801;50.804;12.638;2023-08-31T07:50:04;19.30;9.50
11489;DHT22;5801;50.804;12.638;2023-08-31T08:02:16;19.00;19.80
11489;DHT22;5801;50.804;12.638;2023-08-31T08:07:08;19.50;10.10
11489;DHT22;5801;50.804;12.638;2023-08-31T08:12:01;19.20;9.60
11489;DHT22;5801;50.804;12.638;2023-08-31T08:16:53;18.80;14.40
11489;DHT22;5801;50.804;12.638;2023-08-31T08:19:23;19.10;8.50
11489;DHT22;5801;50.804;12.638;2023-08-31T08:21:52;19.50;4.90
11489;DHT22;5801;50.804;12.638;2023-08-31T08:24:18;19.30;6.60
11489;DHT22;5801;50.804;12.638;2023-08-31T08:26:44;19.00;10.00
11489;DHT22;5801;50.804;12.638;2023-08-31T08:29:09;19.00;12.10
11489;DHT22;5801;50.804;12.638;2023-08-31T08:36:29;19.60;8.10
11489;DHT22;5801;50.804;12.638;2023-08-31T08:38:55;20.20;1.90
11489;DHT22;5801;50.804;12.638;2023-08-31T08:41:24;20.30;1.00
11489;DHT22;5801;50.804;12.638;2023-08-31T08:43:51;19.40;1.00
11489;DHT22;5801;50.804;12.638;2023-08-31T08:48:44;19.40;2.20
11489;DHT22;5801;50.804;12.638;2023-08-31T08:51:13;20.10;1.00
11489;DHT22;5801;50.804;12.638;2023-08-31T08:53:43;20.90;1.00
11489;DHT22;5801;50.804;12.638;2023-08-31T08:56:09;21.10;1.00
11489;DHT22;5801;50.804;12.638;2023-08-31T09:03:27;19.00;2.60
11489;DHT22;5801;50.804;12.638;2023-08-31T09:08:27;19.10;1.00
11489;DHT22;5801;50.804;12.638;2023-08-31T09:10:55;18.90;5.80
11489;DHT22;5801;50.804;12.638;2023-08-31T09:13:28;19.30;7.90
11489;DHT22;5801;50.804;12.638;2023-08-31T09:18:27;20.30;1.00
11489;DHT22;5801;50.804;12.638;2023-08-31T09:20:53;19.90;1.00
11489;DHT22;5801;50.804;12.638;2023-08-31T09:23:19;19.50;1.00
11489;DHT22;5801;50.804;12.638;2023-08-31T09:25:50;20.30;1.00
11489;DHT22;5801;50.804;12.638;2023-08-31T09:28:23;20.90;1.00
11489;DHT22;5801;50.804;12.638;2023-08-31T09:30:52;21.60;1.00
11489;DHT22;5801;50.804;12.638;2023-08-31T09:33:20;21.10;1.00
11489;DHT22;5801;50.804;12.638;2023-08-31T09:35:50;21.10;1.00
11489;DHT22;5801;50.804;12.638;2023-08-31T09:38:18;21.60;1.00
11489;DHT22;5801;50.804;12.638;2023-08-31T09:40:45;21.40;1.00
11489;DHT22;5801;50.804;12.638;2023-08-31T09:43:11;21.40;1.00
11489;DHT22;5801;50.804;12.638;2023-08-31T09:45:37;21.10;1.00
11489;DHT22;5801;50.804;12.638;2023-08-31T09:48:04;20.70;1.00
11489;DHT22;5801;50.804;12.638;2023-08-31T09:50:31;21.00;1.00
11489;DHT22;5801;50.804;12.638;2023-08-31T09:53:03;20.60;1.00
11489;DHT22;5801;50.804;12.638;2023-08-31T09:55:31;19.90;1.00
11489;DHT22;5801;50.804;12.638;2023-08-31T09:57:59;19.50;1.60
11489;DHT22;5801;50.804;12.638;2023-08-31T10:00:36;19.40;1.50
11489;DHT22;5801;50.804;12.638;2023-08-31T10:03:04;19.20;4.30
11489;DHT22;5801;50.804;12.638;2023-08-31T10:07:58;18.40;9.50
11489;DHT22;5801;50.804;12.638;2023-08-31T10:15:19;17.00;38.90
11489;DHT22;5801;50.804;12.638;2023-08-31T10:17:46;16.50;56.20
11489;DHT22;5801;50.804;12.638;2023-08-31T10:20:14;16.30;64.60
11489;DHT22;5801;50.804;12.638;2023-08-31T10:22:41;16.00;78.20
11489;DHT22;5801;50.804;12.638;2023-08-31T10:25:08;16.00;86.20
11489;DHT22;5801;50.804;12.638;2023-08-31T10:46:36;20.40;17.50
11489;DHT22;5801;50.804;12.638;2023-08-31T10:51:40;22.20;1.00
11489;DHT22;5801;50.804;12.638;2023-08-31T10:59:50;22.60;1.00
11489;DHT22;5801;50.804;12.638;2023-08-31T11:02:43;21.40;1.00
11489;DHT22;5801;50.804;12.638;2023-08-31T11:05:17;20.80;1.00
11489;DHT22;5801;50.804;12.638;2023-08-31T11:07:50;21.20;1.00
11489;DHT22;5801;50.804;12.638;2023-08-31T11:10:20;21.70;1.00
11489;DHT22;5801;50.804;12.638;2023-08-31T11:12:58;21.40;1.00
11489;DHT22;5801;50.804;12.638;2023-08-31T11:15:26;20.30;1.00
11489;DHT22;5801;50.804;12.638;2023-08-31T11:17:53;19.40;1.00
11489;DHT22;5801;50.804;12.638;2023-08-31T11:20:20;18.80;1.00
11489;DHT22;5801;50.804;12.638;2023-08-31T11:22:49;18.20;9.40
11489;DHT22;5801;50.804;12.638;2023-08-31T11:25:16;17.90;7.80
11489;DHT22;5801;50.804;12.638;2023-08-31T11:28:02;17.20;12.70
11489;DHT22;5801;50.804;12.638;2023-08-31T11:30:33;16.50;25.40
11489;DHT22;5801;50.804;12.638;2023-08-31T11:33:05;16.20;30.90
11489;DHT22;5801;50.804;12.638;2023-08-31T11:35:34;15.80;48.00
11489;DHT22;5801;50.804;12.638;2023-08-31T11:38:02;16.10;43.70
11489;DHT22;5801;50.804;12.638;2023-08-31T11:45:22;19.30;8.50
11489;DHT22;5801;50.804;12.638;2023-08-31T11:47:49;20.70;1.00
11489;DHT22;5801;50.804;12.638;2023-08-31T11:50:16;21.30;1.00
11489;DHT22;5801;50.804;12.638;2023-08-31T11:52:42;22.10;1.00
11489;DHT22;5801;50.804;12.638;2023-08-31T11:55:15;22.20;1.00
11489;DHT22;5801;50.804;12.638;2023-08-31T11:57:54;22.00;1.00
11489;DHT22;5801;50.804;12.638;2023-08-31T12:00:21;21.30;1.00
11489;DHT22;5801;50.804;12.638;2023-08-31T12:03:01;20.80;1.00
11489;DHT22;5801;50.804;12.638;2023-08-31T12:05:44;20.20;1.00
11489;DHT22;5801;50.804;12.638;2023-08-31T12:08:11;19.20;1.00
11489;DHT22;5801;50.804;12.638;2023-08-31T12:10:40;18.70;1.00
11489;DHT22;5801;50.804;12.638;2023-08-31T12:13:10;18.40;1.00
11489;DHT22;5801;50.804;12.638;2023-08-31T12:15:38;18.10;1.00
11489;DHT22;5801;50.804;12.638;2023-08-31T12:18:11;18.30;1.00
11489;DHT22;5801;50.804;12.638;2023-08-31T12:20:51;18.30;1.00
11489;DHT22;5801;50.804;12.638;2023-08-31T12:23:18;18.30;1.00
11489;DHT22;5801;50.804;12.638;2023-08-31T12:25:51;18.40;1.00
11489;DHT22;5801;50.804;12.638;2023-08-31T12:28:18;18.20;2.90
11489;DHT22;5801;50.804;12.638;2023-08-31T12:30:49;18.10;2.50
11489;DHT22;5801;50.804;12.638;2023-08-31T12:33:17;18.10;4.70
11489;DHT22;5801;50.804;12.638;2023-08-31T12:35:43;18.20;3.30
11489;DHT22;5801;50.804;12.638;2023-08-31T12:40:35;18.40;2.40
11489;DHT22;5801;50.804;12.638;2023-08-31T12:43:01;18.20;4.90
11489;DHT22;5801;50.804;12.638;2023-08-31T12:47:53;18.10;1.00
11489;DHT22;5801;50.804;12.638;2023-08-31T12:50:19;18.20;1.40
11489;DHT22;5801;50.804;12.638;2023-08-31T12:55:15;18.30;1.30
11489;DHT22;5801;50.804;12.638;2023-08-31T12:57:41;18.40;1.00
11489;DHT22;5801;50.804;12.638;2023-08-31T13:00:08;18.50;1.00
11489;DHT22;5801;50.804;12.638;2023-08-31T13:02:40;18.70;1.00
11489;DHT22;5801;50.804;12.638;2023-08-31T13:05:07;18.70;1.00
11489;DHT22;5801;50.804;12.638;2023-08-31T13:07:36;18.80;1.00
11489;DHT22;5801;50.804;12.638;2023-08-31T13:10:03;18.90;1.00
11489;DHT22;5801;50.804;12.638;2023-08-31T13:12:30;18.80;1.00
11489;DHT22;5801;50.804;12.638;2023-08-31T13:14:57;18.80;1.00
11489;DHT22;5801;50.804;12.638;2023-08-31T13:17:23;18.90;1.00
11489;DHT22;5801;50.804;12.638;2023-08-31T13:19:53;18.90;1.00
11489;DHT22;5801;50.804;12.638;2023-08-31T13:22:19;18.80;1.00
11489;DHT22;5801;50.804;12.638;2023-08-31T13:24:45;18.60;1.00
11489;DHT22;5801;50.804;12.638;2023-08-31T13:29:39;18.70;1.00
11489;DHT22;5801;50.804;12.638;2023-08-31T13:32:05;18.60;1.00
11489;DHT22;5801;50.804;12.638;2023-08-31T13:34:31;18.50;1.00
11489;DHT22;5801;50.804;12.638;2023-08-31T13:41:50;18.80;1.00
11489;DHT22;5801;50.804;12.638;2023-08-31T13:51:35;18.90;1.00
11489;DHT22;5801;50.804;12.638;2023-08-31T13:54:02;18.80;1.00
11489;DHT22;5801;50.804;12.638;2023-08-31T14:18:29;18.90;1.00
11489;DHT22;5801;50.804;12.638;2023-08-31T14:35:39;18.40;1.00
11489;DHT22;5801;50.804;12.638;2023-08-31T14:38:05;18.30;1.00
11489;DHT22;5801;50.804;12.638;2023-08-31T14:40:31;18.30;1.00
11489;DHT22;5801;50.804;12.638;2023-08-31T14:42:59;18.30;1.00
11489;DHT22;5801;50.804;12.638;2023-08-31T14:50:18;18.00;1.00
11489;DHT22;5801;50.804;12.638;2023-08-31T14:52:43;17.90;1.00
11489;DHT22;5801;50.804;12.638;2023-08-31T14:55:09;17.70;1.00
11489;DHT22;5801;50.804;12.638;2023-08-31T14:57:35;17.60;1.00
11489;DHT22;5801;50.804;12.638;2023-08-31T15:31:45;17.50;1.00
11489;DHT22;5801;50.804;12.638;2023-08-31T15:34:11;17.50;1.00
11489;DHT22;5801;50.804;12.638;2023-08-31T15:36:37;17.50;1.00
11489;DHT22;5801;50.804;12.638;2023-08-31T15:39:03;17.40;1.00
11489;DHT22;5801;50.804;12.638;2023-08-31T15:43:59;17.20;1.00
11489;DHT22;5801;50.804;12.638;2023-08-31T15:46:26;17.20;1.00
11489;DHT22;5801;50.804;12.638;2023-08-31T15:51:17;17.00;1.30
11489;DHT22;5801;50.804;12.638;2023-08-31T16:03:29;16.70;4.70
11489;DHT22;5801;50.804;12.638;2023-08-31T16:05:58;16.60;7.90
11489;DHT22;5801;50.804;12.638;2023-08-31T16:08:25;16.40;4.50
11489;DHT22;5801;50.804;12.638;2023-08-31T16:13:18;16.20;11.50
11489;DHT22;5801;50.804;12.638;2023-08-31T16:15:45;16.30;13.80
11489;DHT22;5801;50.804;12.638;2023-08-31T16:18:15;16.30;14.00
11489;DHT22;5801;50.804;12.638;2023-08-31T16:20:42;16.30;9.70
11489;DHT22;5801;50.804;12.638;2023-08-31T16:23:11;16.30;11.10
11489;DHT22;5801;50.804;12.638;2023-08-31T16:28:04;16.30;11.00
11489;DHT22;5801;50.804;12.638;2023-08-31T16:30:30;16.30;16.70
11489;DHT22;5801;50.804;12.638;2023-08-31T16:32:56;16.20;16.60
11489;DHT22;5801;50.804;12.638;2023-08-31T16:35:22;16.10;14.20
11489;DHT22;5801;50.804;12.638;2023-08-31T16:40:14;16.00;16.30
11489;DHT22;5801;50.804;12.638;2023-08-31T16:42:41;15.80;21.50
11489;DHT22;5801;50.804;12.638;2023-08-31T16:45:08;15.90;19.50
11489;DHT22;5801;50.804;12.638;2023-08-31T16:47:37;15.90;21.30
11489;DHT22;5801;50.804;12.638;2023-08-31T16:50:03;15.90;21.30
11489;DHT22;5801;50.804;12.638;2023-08-31T16:52:30;15.90;24.40
11489;DHT22;5801;50.804;12.638;2023-08-31T16:54:56;15.80;20.30
11489;DHT22;5801;50.804;12.638;2023-08-31T16:57:23;15.90;23.60
11489;DHT22;5801;50.804;12.638;2023-08-31T17:04:41;15.70;25.50
11489;DHT22;5801;50.804;12.638;2023-08-31T17:12:00;15.80;23.80
11489;DHT22;5801;50.804;12.638;2023-08-31T17:14:28;15.70;24.70
11489;DHT22;5801;50.804;12.638;2023-08-31T17:24:13;15.50;32.40
11489;DHT22;5801;50.804;12.638;2023-08-31T17:29:05;15.50;35.50
11489;DHT22;5801;50.804;12.638;2023-08-31T17:31:31;15.50;37.80
11489;DHT22;5801;50.804;12.638;2023-08-31T17:36:24;15.40;41.10
11489;DHT22;5801;50.804;12.638;2023-08-31T17:41:17;15.30;50.00
11489;DHT22;5801;50.804;12.638;2023-08-31T17:55:54;15.00;65.40
11489;DHT22;5801;50.804;12.638;2023-08-31T17:58:20;14.90;65.20
11489;DHT22;5801;50.804;12.638;2023-08-31T18:03:12;14.60;74.20
11489;DHT22;5801;50.804;12.638;2023-08-31T18:05:38;14.60;70.40
11489;DHT22;5801;50.804;12.638;2023-08-31T18:08:12;14.60;73.10
11489;DHT22;5801;50.804;12.638;2023-08-31T18:32:35;13.80;99.90
11489;DHT22;5801;50.804;12.638;2023-08-31T18:35:02;14.00;99.90
11489;DHT22;5801;50.804;12.638;2023-08-31T18:37:28;14.00;99.90
11489;DHT22;5801;50.804;12.638;2023-08-31T18:42:20;13.70;99.90
11489;DHT22;5801;50.804;12.638;2023-08-31T19:09:07;13.70;99.50
11489;DHT22;5801;50.804;12.638;2023-08-31T19:18:53;13.70;98.40
11489;DHT22;5801;50.804;12.638;2023-08-31T19:43:17;13.70;99.90
11489;DHT22;5801;50.804;12.638;2023-08-31T19:45:43;13.60;99.90
11489;DHT22;5801;50.804;12.638;2023-08-31T19:48:10;13.50;99.90
11489;DHT22;5801;50.804;12.638;2023-08-31T19:50:37;13.70;99.90
11489;DHT22;5801;50.804;12.638;2023-08-31T19:53:04;13.70;99.90
11489;DHT22;5801;50.804;12.638;2023-08-31T19:55:30;13.70;99.90
11489;DHT22;5801;50.804;12.638;2023-08-31T19:57:56;13.50;99.90
11489;DHT22;5801;50.804;12.638;2023-08-31T20:00:24;13.80;99.90
11489;DHT22;5801;50.804;12.638;2023-08-31T20:07:49;13.50;99.90
11489;DHT22;5801;50.804;12.638;2023-08-31T20:10:16;14.10;99.90
11489;DHT22;5801;50.804;12.638;2023-08-31T20:12:43;14.10;99.90
11489;DHT22;5801;50.804;12.638;2023-08-31T20:15:09;13.60;99.90
11489;DHT22;5801;50.804;12.638;2023-08-31T20:17:35;13.60;99.90
11489;DHT22;5801;50.804;12.638;2023-08-31T20:20:04;13.80;99.90
11489;DHT22;5801;50.804;12.638;2023-08-31T20:34:46;13.80;99.90
11489;DHT22;5801;50.804;12.638;2023-08-31T20:42:05;13.90;99.90
11489;DHT22;5801;50.804;12.638;2023-08-31T20:47:02;13.50;99.90
11489;DHT22;5801;50.804;12.638;2023-08-31T20:49:29;13.90;99.90
11489;DHT22;5801;50.804;12.638;2023-08-31T20:51:55;13.70;99.90
11489;DHT22;5801;50.804;12.638;2023-08-31T21:01:39;13.50;99.90
11489;DHT22;5801;50.804;12.638;2023-08-31T21:04:05;13.30;99.90
11489;DHT22;5801;50.804;12.638;2023-08-31T21:13:51;13.30;99.90
11489;DHT22;5801;50.804;12.638;2023-08-31T21:16:18;13.30;99.90
11489;DHT22;5801;50.804;12.638;2023-08-31T21:23:37;13.10;99.90
11489;DHT22;5801;50.804;12.638;2023-08-31T21:26:05;13.00;99.90
11489;DHT22;5801;50.804;12.638;2023-08-31T21:28:32;13.20;99.90
11489;DHT22;5801;50.804;12.638;2023-08-31T21:30:59;12.90;99.90
11489;DHT22;5801;50.804;12.638;2023-08-31T21:38:17;13.00;99.90
11489;DHT22;5801;50.804;12.638;2023-08-31T21:45:38;13.20;99.90
11489;DHT22;5801;50.804;12.638;2023-08-31T21:48:04;12.50;99.90
11489;DHT22;5801;50.804;12.638;2023-08-31T21:50:31;13.00;99.90
11489;DHT22;5801;50.804;12.638;2023-08-31T21:53:02;12.90;99.90
11489;DHT22;5801;50.804;12.638;2023-08-31T21:55:28;12.80;99.90
11489;DHT22;5801;50.804;12.638;2023-08-31T21:57:54;12.90;99.90
11489;DHT22;5801;50.804;12.638;2023-08-31T22:00:20;12.80;99.90
11489;DHT22;5801;50.804;12.638;2023-08-31T22:02:48;12.80;99.90
11489;DHT22;5801;50.804;12.638;2023-08-31T22:05:19;12.50;99.90
11489;DHT22;5801;50.804;12.638;2023-08-31T22:07:46;12.00;99.90
11489;DHT22;5801;50.804;12.638;2023-08-31T22:10:13;12.20;99.90
11489;DHT22;5801;50.804;12.638;2023-08-31T22:12:41;12.20;99.90
11489;DHT22;5801;50.804;12.638;2023-08-31T22:17:42;12.10;99.90
11489;DHT22;5801;50.804;12.638;2023-08-31T22:20:09;12.10;99.90
11489;DHT22;5801;50.804;12.638;2023-08-31T22:22:38;11.90;99.90
11489;DHT22;5801;50.804;12.638;2023-08-31T22:25:04;11.80;99.90
11489;DHT22;5801;50.804;12.638;2023-08-31T22:27:32;11.70;99.90
11489;DHT22;5801;50.804;12.638;2023-08-31T22:29:57;12.00;99.90
11489;DHT22;5801;50.804;12.638;2023-08-31T22:42:09;12.00;99.90
11489;DHT22;5801;50.804;12.638;2023-08-31T22:44:37;11.80;99.90
11489;DHT22;5801;50.804;12.638;2023-08-31T22:49:29;11.60;99.90
11489;DHT22;5801;50.804;12.638;2023-08-31T22:51:54;11.80;99.90
11489;DHT22;5801;50.804;12.638;2023-08-31T22:54:21;11.80;99.90
11489;DHT22;5801;50.804;12.638;2023-08-31T22:56:47;12.20;99.90
11489;DHT22;5801;50.804;12.638;2023-08-31T23:08:58;12.10;99.90
11489;DHT22;5801;50.804;12.638;2023-08-31T23:13:53;12.10;99.90
11489;DHT22;5801;50.804;12.638;2023-08-31T23:16:19;12.30;99.90
11489;DHT22;5801;50.804;12.638;2023-08-31T23:18:45;12.10;99.90
11489;DHT22;5801;50.804;12.638;2023-08-31T23:21:11;12.20;1.00
11489;DHT22;5801;50.804;12.638;2023-08-31T23:23:38;12.30;99.90
11489;DHT22;5801;50.804;12.638;2023-08-31T23:28:31;12.30;99.90
11489;DHT22;5801;50.804;12.638;2023-08-31T23:30:57;12.10;99.90
11489;DHT22;5801;50.804;12.638;2023-08-31T23:33:23;12.00;99.90
11489;DHT22;5801;50.804;12.638;2023-08-31T23:35:50;12.20;1.00
11489;DHT22;5801;50.804;12.638;2023-08-31T23:40:43;12.00;1.00
11489;DHT22;5801;50.804;12.638;2023-08-31T23:43:09;12.00;1.00
11489;DHT22;5801;50.804;12.638;2023-08-31T23:55:20;12.10;1.00
11489;DHT22;5801;50.804;12.638;2023-08-31T23:57:46;12.00;1.00
